»·PEaware :: AFL412 KLAS-KASE

AFL412 :: KLAS-KASE

FLIGHT INFORMATION

Flight Status: Arrived
Operator:
Aeroflot
More flights by this operator :: More flights under this callsign
Pilot: Juergen W. (20028)
Aircraft: AIRBUS A319
(A319)
More flights by this aircraft type
Origin: KLAS McCarran Intl
United States
Destination: KASE Aspen-Pitkin Co/Sardy
United States
More flights between these airports :: More routes between these airports
Route: +TRALR9 DVC MTJ V361 DBL
File this flight plan on PilotEdge
Remarks:
Altitude:
(Current/Filed)
370ft
Speed:
(Current/Filed)
459kts
Departed: 09-Aug-18 02:59 PM
Arrived: 09-Aug-18 04:13 PM
Distance/Time
Traveled:
436nm/1:13
Distance/Time
To Go:
Arrived

Flight Plot

Page will automatically refresh every two minutes.

Flight plan parsing failed; only flown route is shown


Map Options




Map Legend


Flown Route
Filed Route
Departure Airport
Arrival Airport
Navaid (VOR, NDB)
Fix

Horizontal Profiles

Position Reports

Time Latitude Longitude Heading Altitude Ground
Speed
09-Aug-18 14:21 36.084956 -115.152811 5 2195ft 0kts
09-Aug-18 14:22 36.084956 -115.152811 5 2195ft 0kts
09-Aug-18 14:23 36.084956 -115.152811 5 2195ft 0kts
09-Aug-18 14:24 36.084956 -115.152811 5 2195ft 0kts
09-Aug-18 14:25 36.084956 -115.152811 5 2195ft 0kts
09-Aug-18 14:26 36.084956 -115.152811 5 2195ft 0kts
09-Aug-18 14:27 36.084956 -115.152811 5 2195ft 0kts
09-Aug-18 14:28 36.084956 -115.152811 5 2195ft 0kts
09-Aug-18 14:29 36.084956 -115.152811 5 2195ft 0kts
09-Aug-18 14:30 36.084956 -115.152811 5 2195ft 0kts
09-Aug-18 14:31 36.084956 -115.152811 5 2195ft 0kts
09-Aug-18 14:32 36.084956 -115.152811 5 2195ft 0kts
09-Aug-18 14:33 36.084956 -115.152811 5 2195ft 0kts
09-Aug-18 14:34 36.084956 -115.152811 5 2195ft 0kts
09-Aug-18 14:35 36.084956 -115.152811 5 2195ft 0kts
09-Aug-18 14:36 36.084956 -115.152811 5 2195ft 0kts
09-Aug-18 14:37 36.084956 -115.152811 5 2195ft 0kts
09-Aug-18 14:38 36.084956 -115.152811 5 2195ft 0kts
09-Aug-18 14:39 36.084956 -115.152811 5 2195ft 0kts
09-Aug-18 14:40 36.084956 -115.152811 5 2195ft 0kts
09-Aug-18 14:41 36.084956 -115.152811 5 2195ft 0kts
09-Aug-18 14:42 36.084956 -115.152811 5 2195ft 0kts
09-Aug-18 14:43 36.084956 -115.152811 5 2195ft 0kts
09-Aug-18 14:44 36.084572 -115.152853 5 2195ft 2kts
09-Aug-18 14:45 36.084059 -115.152908 4 2195ft 0kts
09-Aug-18 14:46 36.084061 -115.152908 4 2195ft 0kts
09-Aug-18 14:47 36.084063 -115.152907 4 2195ft 0kts
09-Aug-18 14:48 36.084066 -115.152907 4 2195ft 0kts
09-Aug-18 14:49 36.084068 -115.152907 4 2195ft 0kts
09-Aug-18 14:50 36.083995 -115.153880 244 2195ft 2kts
09-Aug-18 14:51 36.083341 -115.155555 228 2195ft 8kts
09-Aug-18 14:52 36.081497 -115.154917 154 2195ft 6kts
09-Aug-18 14:53 36.079201 -115.153591 154 2195ft 9kts
09-Aug-18 14:54 36.078038 -115.155198 269 2195ft 8kts
09-Aug-18 14:55 36.078034 -115.157507 269 2195ft 5kts
09-Aug-18 14:56 36.078033 -115.158848 269 2195ft 2kts
09-Aug-18 14:57 36.077509 -115.161280 179 2195ft 7kts
09-Aug-18 14:58 36.077199 -115.161276 179 2195ft 2kts
09-Aug-18 14:59 36.076392 -115.160820 87 2195ft 1kts
09-Aug-18 15:00 36.076404 -115.131463 90 2693ft 178kts
09-Aug-18 15:01 36.076246 -115.053810 90 4907ft 273kts
09-Aug-18 15:02 36.075961 -114.956265 87 9882ft 293kts
09-Aug-18 15:03 36.094550 -114.842165 78 12490ft 378kts
09-Aug-18 15:04 36.116593 -114.711659 78 16349ft 397kts
09-Aug-18 15:05 36.139652 -114.574554 78 19465ft 414kts
09-Aug-18 15:06 36.163309 -114.433007 78 21906ft 428kts
09-Aug-18 15:07 36.187596 -114.286919 78 23837ft 438kts
09-Aug-18 15:08 36.207455 -114.135796 81 25299ft 450kts
09-Aug-18 15:09 36.225842 -113.980506 81 26582ft 460kts
09-Aug-18 15:10 36.244637 -113.821755 81 27688ft 470kts
09-Aug-18 15:11 36.263632 -113.660406 81 28743ft 475kts
09-Aug-18 15:12 36.282535 -113.498479 81 29963ft 474kts
09-Aug-18 15:13 36.301144 -113.337350 81 31190ft 472kts
09-Aug-18 15:14 36.332140 -113.180487 66 32341ft 468kts
09-Aug-18 15:15 36.384173 -113.032581 64 33418ft 466kts
09-Aug-18 15:16 36.438343 -112.886166 64 34436ft 465kts
09-Aug-18 15:17 36.492083 -112.740645 63 35377ft 463kts
09-Aug-18 15:18 36.545661 -112.594965 63 36288ft 461kts
09-Aug-18 15:19 36.598702 -112.450055 63 37102ft 460kts
09-Aug-18 15:20 36.651608 -112.304801 63 37205ft 459kts
09-Aug-18 15:21 36.704177 -112.159796 63 37193ft 459kts
09-Aug-18 15:22 36.756537 -112.014640 63 37199ft 458kts
09-Aug-18 15:23 36.808515 -111.869814 63 37167ft 457kts
09-Aug-18 15:24 36.860372 -111.724674 63 37125ft 457kts
09-Aug-18 15:25 36.912008 -111.579449 63 37091ft 456kts
09-Aug-18 15:26 36.963317 -111.434436 63 37079ft 456kts
09-Aug-18 15:27 37.014265 -111.289745 64 37085ft 456kts
09-Aug-18 15:28 37.065153 -111.144525 64 37100ft 455kts
09-Aug-18 15:29 37.115855 -110.999110 64 37118ft 454kts
09-Aug-18 15:30 37.166184 -110.854093 64 37134ft 453kts
09-Aug-18 15:31 37.216163 -110.709370 64 37146ft 453kts
09-Aug-18 15:32 37.265964 -110.564459 64 37163ft 452kts
09-Aug-18 15:33 37.315523 -110.419526 64 37185ft 450kts
09-Aug-18 15:34 37.364795 -110.274749 64 37201ft 450kts
09-Aug-18 15:35 37.413710 -110.130287 64 37222ft 448kts
09-Aug-18 15:36 37.462507 -109.985476 64 37243ft 448kts
09-Aug-18 15:37 37.510871 -109.841233 64 37261ft 447kts
09-Aug-18 15:38 37.559025 -109.696911 65 37276ft 447kts
09-Aug-18 15:39 37.607079 -109.552170 65 37286ft 447kts
09-Aug-18 15:40 37.655054 -109.406944 65 37287ft 447kts
09-Aug-18 15:41 37.702731 -109.261894 65 37277ft 447kts
09-Aug-18 15:42 37.750239 -109.116629 65 37262ft 447kts
09-Aug-18 15:43 37.798401 -108.971820 61 37249ft 445kts
09-Aug-18 15:44 37.870380 -108.846317 48 37242ft 441kts
09-Aug-18 15:45 37.949835 -108.728141 48 37241ft 439kts
09-Aug-18 15:46 38.029221 -108.610766 48 37242ft 435kts
09-Aug-18 15:47 38.108436 -108.493785 48 37256ft 436kts
09-Aug-18 15:48 38.187632 -108.376745 48 37258ft 436kts
09-Aug-18 15:49 38.266802 -108.259493 48 37272ft 436kts
09-Aug-18 15:50 38.345684 -108.142328 48 37267ft 436kts
09-Aug-18 15:51 38.424706 -108.024566 48 37227ft 436kts
09-Aug-18 15:52 38.507211 -107.911685 37 37209ft 436kts
09-Aug-18 15:53 38.614224 -107.838484 26 37200ft 438kts
09-Aug-18 15:54 38.720370 -107.762524 38 36732ft 436kts
09-Aug-18 15:55 38.810203 -107.658250 42 34016ft 440kts
09-Aug-18 15:56 38.901685 -107.549127 43 28821ft 458kts
09-Aug-18 15:57 38.993165 -107.439114 43 24870ft 437kts
09-Aug-18 15:58 39.072951 -107.342652 43 24047ft 354kts
09-Aug-18 15:59 39.143059 -107.257379 43 21189ft 340kts
09-Aug-18 16:00 39.210451 -107.175325 42 20484ft 332kts
09-Aug-18 16:01 39.288422 -107.133820 9 20457ft 294kts
09-Aug-18 16:02 39.338579 -107.123568 9 20399ft 264kts
09-Aug-18 16:03 39.411070 -107.108680 9 18874ft 261kts
09-Aug-18 16:04 39.482303 -107.093791 9 17572ft 257kts
09-Aug-18 16:05 39.551632 -107.076727 28 16260ft 253kts
09-Aug-18 16:06 39.563573 -106.992547 103 15964ft 260kts
09-Aug-18 16:07 39.542807 -106.956910 150 15865ft 261kts
09-Aug-18 16:08 39.476317 -106.916626 154 15124ft 260kts
09-Aug-18 16:09 39.431989 -106.890250 154 14128ft 246kts
09-Aug-18 16:10 39.370791 -106.876643 174 12607ft 224kts
09-Aug-18 16:11 39.317762 -106.892167 180 10727ft 191kts
09-Aug-18 16:12 39.267552 -106.885700 168 8688ft 165kts
09-Aug-18 16:13 39.226738 -106.870342 172 7834ft 91kts
09-Aug-18 16:14 39.220878 -106.867489 94 7834ft 7kts
09-Aug-18 16:15 39.220901 -106.867309 70 7834ft 1kts
09-Aug-18 16:16 39.221012 -106.866907 71 7834ft 1kts
09-Aug-18 16:17 39.221172 -106.866329 70 7834ft 0kts
09-Aug-18 16:18 39.221207 -106.866205 70 7834ft 0kts
09-Aug-18 16:19 39.221207 -106.866205 70 7834ft 0kts
09-Aug-18 16:20 39.221207 -106.866205 70 7834ft 0kts
09-Aug-18 16:21 39.221207 -106.866205 70 7834ft 0kts
09-Aug-18 16:22 39.221207 -106.866205 70 7834ft 0kts
09-Aug-18 16:23 39.221207 -106.866205 70 7834ft 0kts
09-Aug-18 16:24 39.221207 -106.866205 70 7834ft 0kts
09-Aug-18 16:25 39.221207 -106.866205 70 7834ft 0kts
09-Aug-18 16:26 39.221207 -106.866205 70 7834ft 0kts
09-Aug-18 16:27 39.221207 -106.866205 70 7834ft 0kts
09-Aug-18 16:28 39.221207 -106.866205 70 7834ft 0kts

Navigation Log

Ident Type
Flight plan parsing failed, navigation log unavailable